Time;durP1;ratioP1;P1;durP2;ratioP2;P2;SDS_P1;SDS_P2;PMS_P1;PMS_P2;Temp;Humidity;BMP_temperature;BMP_pressure;BME280_temperature;BME280_humidity;BME280_pressure;Samples;Min_cycle;Max_cycle;Signal;HPM_P1;HPM_P2
2022/10/21 00:00:26;;;;;;;32.83;22.60;;;12.20;99.90;;;;;;5136344;27;20122;-55
2022/10/21 00:02:51;;;;;;;35.97;21.45;;;12.40;99.90;;;;;;5136689;27;20039;-55
2022/10/21 00:05:17;;;;;;;39.00;22.52;;;12.30;99.90;;;;;;5136597;27;20122;-55
2022/10/21 00:07:42;;;;;;;36.65;23.30;;;12.20;99.90;;;;;;5136743;27;20065;-55
2022/10/21 00:10:08;;;;;;;36.08;23.15;;;12.20;99.90;;;;;;5136574;27;20089;-54
2022/10/21 00:12:35;;;;;;;37.88;23.15;;;12.40;99.90;;;;;;5136433;27;20043;-54
2022/10/21 00:15:09;;;;;;;39.90;24.23;;;12.20;99.90;;;;;;5136400;27;20035;-54
2022/10/21 00:17:39;;;;;;;32.05;22.38;;;12.40;99.90;;;;;;5136372;27;20039;-54
2022/10/21 00:20:08;;;;;;;37.80;22.40;;;12.20;99.90;;;;;;5136066;27;20482;-55
2022/10/21 00:22:34;;;;;;;40.13;24.70;;;12.30;99.90;;;;;;5135969;27;20039;-55
2022/10/21 00:25:00;;;;;;;35.95;22.13;;;12.20;99.90;;;;;;5136337;27;20038;-54
2022/10/21 00:27:26;;;;;;;36.10;23.48;;;12.30;99.90;;;;;;5135903;27;20485;-54
2022/10/21 00:29:52;;;;;;;38.50;23.58;;;12.10;99.90;;;;;;5136108;27;20434;-54
2022/10/21 00:32:18;;;;;;;39.97;23.60;;;12.10;99.90;;;;;;5135864;27;20043;-54
2022/10/21 00:34:43;;;;;;;37.28;22.55;;;12.10;99.90;;;;;;5135894;27;20118;-54
2022/10/21 00:37:10;;;;;;;39.72;24.05;;;12.30;99.90;;;;;;5135317;27;20159;-54
2022/10/21 00:39:36;;;;;;;37.38;22.70;;;12.10;99.90;;;;;;5135650;27;20043;-54
2022/10/21 00:42:04;;;;;;;39.45;24.25;;;12.30;99.90;;;;;;5135856;27;20058;-54
2022/10/21 00:44:30;;;;;;;40.45;23.80;;;12.20;99.90;;;;;;5135865;27;20127;-54
2022/10/21 00:47:11;;;;;;;36.67;22.88;;;12.10;99.90;;;;;;5135838;27;20101;-54
2022/10/21 00:49:41;;;;;;;38.45;24.27;;;12.30;99.90;;;;;;5135693;27;20054;-54
2022/10/21 00:52:18;;;;;;;32.42;22.02;;;12.10;99.90;;;;;;5135645;27;20039;-55
2022/10/21 00:54:46;;;;;;;33.80;21.50;;;12.00;99.90;;;;;;5135659;27;20450;-55
2022/10/21 00:57:12;;;;;;;36.90;23.48;;;12.10;99.90;;;;;;5135362;27;20027;-54
2022/10/21 00:59:42;;;;;;;34.95;23.02;;;11.90;99.90;;;;;;5135479;27;20046;-54
2022/10/21 01:02:08;;;;;;;29.92;22.52;;;12.00;99.90;;;;;;5116589;27;20554;-54
2022/10/21 01:04:34;;;;;;;34.00;22.83;;;12.10;99.90;;;;;;5135452;27;20027;-55
2022/10/21 01:07:01;;;;;;;47.40;24.15;;;12.20;99.90;;;;;;5135347;27;20480;-55
2022/10/21 01:09:28;;;;;;;36.58;23.73;;;11.90;99.90;;;;;;5135319;27;20035;-55
2022/10/21 01:11:55;;;;;;;32.97;21.45;;;12.10;99.90;;;;;;5135066;27;20039;-55
2022/10/21 01:14:35;;;;;;;38.55;23.75;;;12.00;99.90;;;;;;5135300;27;20436;-55
2022/10/21 01:17:07;;;;;;;35.33;22.52;;;12.00;99.90;;;;;;5135054;27;20043;-54
2022/10/21 01:19:47;;;;;;;36.33;21.60;;;11.80;99.90;;;;;;5135060;27;20070;-55
2022/10/21 01:22:50;;;;;;;37.25;23.55;;;12.00;99.90;;;;;;5135137;27;20031;-55
2022/10/21 01:25:50;;;;;;;32.85;22.33;;;11.90;99.90;;;;;;5135110;27;20088;-55
2022/10/21 01:28:27;;;;;;;36.42;22.42;;;11.90;99.90;;;;;;5135070;27;20035;-55
2022/10/21 01:30:58;;;;;;;37.67;23.10;;;11.70;99.90;;;;;;5134946;27;20040;-55
2022/10/21 01:33:23;;;;;;;34.20;21.67;;;11.70;99.90;;;;;;5134965;27;20038;-54
2022/10/21 01:36:04;;;;;;;35.05;22.50;;;11.60;99.90;;;;;;5134976;27;20439;-54
2022/10/21 01:38:40;;;;;;;35.03;23.58;;;11.80;99.90;;;;;;5134864;27;20050;-55
2022/10/21 01:41:12;;;;;;;34.03;22.17;;;11.70;99.90;;;;;;5134605;27;20191;-54
2022/10/21 01:43:46;;;;;;;39.53;23.08;;;11.60;99.90;;;;;;5134925;27;20066;-54
2022/10/21 01:46:17;;;;;;;33.03;22.02;;;11.60;99.90;;;;;;5134593;27;20039;-54
2022/10/21 01:48:51;;;;;;;39.47;23.42;;;11.60;99.90;;;;;;5134869;27;20114;-55
2022/10/21 01:51:18;;;;;;;34.03;21.10;;;11.80;99.90;;;;;;5134541;27;20474;-55
2022/10/21 01:53:52;;;;;;;31.25;21.85;;;11.70;99.90;;;;;;5134813;27;20035;-55
2022/10/21 01:56:20;;;;;;;37.20;21.77;;;11.60;99.90;;;;;;5134621;28;20075;-54
2022/10/21 01:58:47;;;;;;;40.42;23.38;;;11.70;99.90;;;;;;5134634;27;20043;-55
2022/10/21 02:01:15;;;;;;;37.78;22.30;;;11.70;99.90;;;;;;5134671;28;20032;-54
2022/10/21 02:03:44;;;;;;;36.95;23.40;;;11.60;99.90;;;;;;5134529;28;20036;-55
2022/10/21 02:06:12;;;;;;;34.53;21.65;;;11.70;99.90;;;;;;5116114;28;20039;-55
2022/10/21 02:08:42;;;;;;;33.72;21.20;;;11.80;99.90;;;;;;5134794;27;20039;-54
2022/10/21 02:11:09;;;;;;;33.15;23.10;;;11.70;99.90;;;;;;5134591;27;20112;-55
2022/10/21 02:14:12;;;;;;;34.47;23.20;;;11.70;99.90;;;;;;5134504;28;20035;-54
2022/10/21 02:16:39;;;;;;;37.17;22.85;;;11.80;99.90;;;;;;5031212;28;20053;-55
2022/10/21 02:19:13;;;;;;;34.83;21.80;;;11.70;99.90;;;;;;5031152;28;20125;-54
2022/10/21 02:21:40;;;;;;;40.22;23.30;;;11.70;99.90;;;;;;5031383;28;20051;-55
2022/10/21 02:24:32;;;;;;;41.13;23.58;;;11.80;99.90;;;;;;5031046;28;20096;-54
2022/10/21 02:26:57;;;;;;;32.30;22.67;;;11.80;99.90;;;;;;4972460;28;20161;-54
2022/10/21 02:29:27;;;;;;;34.53;22.83;;;11.70;99.90;;;;;;4972400;28;20134;-54
2022/10/21 02:32:08;;;;;;;33.35;21.52;;;11.70;99.90;;;;;;4972441;28;20055;-55
2022/10/21 02:34:41;;;;;;;41.65;24.30;;;11.60;99.90;;;;;;4972622;28;20043;-54
2022/10/21 02:37:31;;;;;;;34.00;23.20;;;11.90;99.90;;;;;;4972246;28;20482;-55
2022/10/21 02:40:08;;;;;;;35.65;22.95;;;11.80;99.90;;;;;;4914612;29;20087;-54
2022/10/21 02:42:42;;;;;;;33.22;22.80;;;11.90;99.90;;;;;;4915132;29;20051;-55
2022/10/21 02:45:08;;;;;;;36.78;23.80;;;11.70;99.90;;;;;;4914965;29;20084;-55
2022/10/21 02:47:36;;;;;;;36.08;23.55;;;11.80;99.90;;;;;;4914737;29;20184;-54
2022/10/21 02:50:02;;;;;;;33.73;22.77;;;11.90;99.90;;;;;;4914881;29;20104;-54
2022/10/21 02:52:28;;;;;;;42.33;25.48;;;11.90;99.90;;;;;;4961942;28;20274;-55
2022/10/21 02:54:54;;;;;;;43.85;24.42;;;11.90;99.90;;;;;;4991735;28;20049;-54
2022/10/21 02:57:19;;;;;;;35.28;23.55;;;11.90;99.90;;;;;;4991625;28;20066;-55
2022/10/21 02:59:45;;;;;;;44.70;24.15;;;12.20;99.90;;;;;;4993661;28;20087;-55
2022/10/21 03:02:10;;;;;;;47.25;24.70;;;12.10;99.90;;;;;;4995125;28;20571;-55
2022/10/21 03:04:36;;;;;;;42.88;25.92;;;12.10;99.90;;;;;;5040914;28;20072;-55
2022/10/21 03:07:02;;;;;;;39.13;23.75;;;12.10;99.90;;;;;;5054397;28;20119;-55
2022/10/21 03:09:27;;;;;;;39.72;25.45;;;12.20;99.90;;;;;;5054323;28;20048;-55
2022/10/21 03:11:53;;;;;;;46.78;25.85;;;12.40;99.90;;;;;;5054339;28;20045;-54
2022/10/21 03:14:18;;;;;;;43.88;26.58;;;12.40;99.90;;;;;;5054021;28;20419;-55
2022/10/21 03:16:44;;;;;;;39.38;25.20;;;12.40;99.90;;;;;;5088610;27;20082;-55
2022/10/21 03:19:10;;;;;;;39.92;25.60;;;12.20;99.90;;;;;;5137682;27;20046;-55
2022/10/21 03:21:35;;;;;;;44.05;25.55;;;12.30;99.90;;;;;;5137455;27;20549;-55
2022/10/21 03:24:01;;;;;;;39.22;24.40;;;12.20;99.90;;;;;;5137384;27;20055;-55
2022/10/21 03:26:27;;;;;;;43.03;25.58;;;12.40;99.90;;;;;;5137399;27;20031;-55
2022/10/21 03:28:52;;;;;;;42.10;25.98;;;12.60;99.90;;;;;;5137107;27;20390;-55
2022/10/21 03:31:18;;;;;;;41.88;25.40;;;12.20;99.90;;;;;;5137363;27;20045;-55
2022/10/21 03:33:44;;;;;;;43.28;25.67;;;12.60;99.90;;;;;;5137151;27;20062;-54
2022/10/21 03:36:09;;;;;;;47.10;25.52;;;12.50;99.90;;;;;;5137229;27;20035;-55
2022/10/21 03:38:35;;;;;;;34.95;23.25;;;12.30;99.90;;;;;;5136999;27;20417;-55
2022/10/21 03:41:01;;;;;;;43.28;23.83;;;12.60;99.90;;;;;;5136719;27;20058;-55
2022/10/21 03:43:26;;;;;;;38.78;23.75;;;12.50;99.90;;;;;;5137457;27;20050;-55
2022/10/21 03:45:52;;;;;;;43.75;25.45;;;12.50;99.90;;;;;;5136950;27;20078;-55
2022/10/21 03:48:17;;;;;;;44.35;23.98;;;12.50;99.90;;;;;;5136922;27;20031;-55
2022/10/21 03:50:43;;;;;;;41.30;24.10;;;12.40;99.90;;;;;;5136973;27;20031;-54
2022/10/21 03:53:08;;;;;;;38.70;24.50;;;12.60;99.90;;;;;;5136673;27;20499;-55
2022/10/21 03:55:34;;;;;;;33.97;22.38;;;12.30;99.90;;;;;;5136810;27;20031;-55
2022/10/21 03:58:00;;;;;;;35.78;22.48;;;12.40;99.90;;;;;;5136689;27;20031;-55
2022/10/21 04:00:25;;;;;;;37.03;23.63;;;12.50;99.90;;;;;;5136699;27;20043;-55
2022/10/21 04:02:51;;;;;;;40.25;24.30;;;12.50;99.90;;;;;;5136423;27;20501;-55
2022/10/21 04:05:16;;;;;;;40.22;23.10;;;12.50;99.90;;;;;;5136685;27;20031;-55
2022/10/21 04:07:42;;;;;;;36.95;23.00;;;12.20;99.90;;;;;;5136565;27;20031;-55
2022/10/21 04:10:09;;;;;;;35.08;22.85;;;12.60;99.90;;;;;;5136459;27;20087;-55
2022/10/21 04:12:35;;;;;;;44.33;25.17;;;12.40;99.90;;;;;;5136881;27;20035;-55
2022/10/21 04:15:00;;;;;;;44.10;25.30;;;12.50;99.90;;;;;;5136481;27;20035;-55
2022/10/21 04:17:26;;;;;;;45.70;25.52;;;12.50;99.90;;;;;;5136353;27;20035;-55
2022/10/21 04:19:52;;;;;;;34.05;23.20;;;12.40;99.90;;;;;;5136288;27;20477;-55
2022/10/21 04:22:17;;;;;;;48.03;24.90;;;12.50;99.90;;;;;;5136340;27;20035;-55
2022/10/21 04:24:43;;;;;;;46.40;25.08;;;12.50;99.90;;;;;;5136294;27;20031;-54
2022/10/21 04:27:09;;;;;;;39.00;24.98;;;12.20;99.90;;;;;;5135797;27;20560;-55
2022/10/21 04:29:34;;;;;;;34.58;22.20;;;12.40;99.90;;;;;;5136571;27;20123;-55
2022/10/21 04:32:00;;;;;;;41.13;23.15;;;12.30;99.90;;;;;;5135967;27;20118;-55
2022/10/21 04:34:46;;;;;;;31.92;22.58;;;12.50;99.90;;;;;;5136029;27;20039;-54
2022/10/21 04:37:11;;;;;;;38.75;23.08;;;12.50;99.90;;;;;;5032464;28;20487;-54
2022/10/21 04:39:37;;;;;;;35.80;22.38;;;12.30;99.90;;;;;;5032460;28;20184;-55
2022/10/21 04:42:03;;;;;;;45.47;25.05;;;12.30;99.90;;;;;;5015013;28;20383;-54
2022/10/21 04:44:29;;;;;;;45.60;25.70;;;12.30;99.90;;;;;;5032625;28;20040;-55
2022/10/21 04:46:55;;;;;;;46.75;24.75;;;12.50;99.90;;;;;;5015925;28;20396;-54
2022/10/21 04:49:20;;;;;;;50.72;27.08;;;12.40;99.90;;;;;;5010579;28;20046;-54
2022/10/21 04:51:46;;;;;;;42.45;24.95;;;12.10;99.90;;;;;;5011525;28;20049;-54
2022/10/21 04:54:12;;;;;;;45.47;24.88;;;12.30;99.90;;;;;;5012713;28;20072;-54
2022/10/21 04:56:39;;;;;;;50.88;26.77;;;12.50;99.90;;;;;;5012603;28;20042;-55
2022/10/21 04:59:05;;;;;;;49.70;26.75;;;12.50;99.90;;;;;;5012417;28;20049;-54
2022/10/21 05:01:31;;;;;;;49.00;26.17;;;12.40;99.90;;;;;;5012534;28;20524;-54
2022/10/21 05:03:57;;;;;;;52.15;29.20;;;12.40;99.90;;;;;;5011325;28;20082;-55
2022/10/21 05:06:23;;;;;;;51.95;27.23;;;12.60;99.90;;;;;;4996181;28;20476;-55
2022/10/21 05:08:48;;;;;;;76.95;30.08;;;12.50;99.90;;;;;;5012275;28;20092;-54
2022/10/21 05:11:14;;;;;;;50.95;26.77;;;12.30;99.90;;;;;;5012343;28;20167;-55
2022/10/21 05:13:40;;;;;;;54.08;26.35;;;12.60;99.90;;;;;;5037819;28;20112;-55
2022/10/21 05:16:06;;;;;;;59.03;27.83;;;12.50;99.90;;;;;;5118362;27;20031;-55
2022/10/21 05:18:31;;;;;;;79.22;31.08;;;12.30;99.90;;;;;;5131362;27;20161;-55
2022/10/21 05:20:57;;;;;;;55.35;28.13;;;12.60;99.90;;;;;;5133651;27;20031;-55
2022/10/21 05:23:24;;;;;;;45.60;26.83;;;12.40;99.90;;;;;;5134656;27;20384;-55
2022/10/21 05:25:50;;;;;;;52.08;27.63;;;12.40;99.90;;;;;;5135137;27;20035;-55
2022/10/21 05:28:17;;;;;;;64.32;29.05;;;12.40;99.90;;;;;;5134940;27;20478;-55
2022/10/21 05:30:43;;;;;;;68.35;30.50;;;12.50;99.90;;;;;;5135047;27;20045;-55
2022/10/21 05:33:09;;;;;;;61.33;29.85;;;12.70;99.90;;;;;;5134976;27;20075;-55
2022/10/21 05:35:35;;;;;;;67.60;31.23;;;12.80;99.90;;;;;;5134981;27;20039;-54
2022/10/21 05:38:01;;;;;;;66.47;30.20;;;12.70;99.90;;;;;;5134905;27;20080;-55
2022/10/21 05:40:26;;;;;;;64.18;31.25;;;12.50;99.90;;;;;;5134630;27;20126;-55
2022/10/21 05:42:52;;;;;;;56.40;29.08;;;12.50;99.90;;;;;;5134911;27;20045;-55
2022/10/21 05:45:18;;;;;;;64.55;32.38;;;12.80;99.90;;;;;;5134013;27;20062;-55
2022/10/21 05:47:44;;;;;;;69.00;30.85;;;12.60;99.90;;;;;;5121376;27;20036;-55
2022/10/21 05:50:11;;;;;;;69.40;32.42;;;12.60;99.90;;;;;;5111922;28;20110;-55
2022/10/21 05:52:37;;;;;;;66.20;30.65;;;12.60;99.90;;;;;;5130949;27;20095;-54
2022/10/21 05:55:03;;;;;;;76.65;34.05;;;12.80;99.90;;;;;;5134781;27;20035;-54
2022/10/21 05:57:33;;;;;;;75.15;33.42;;;12.90;99.90;;;;;;5134530;28;20035;-55
2022/10/21 05:59:59;;;;;;;67.40;33.05;;;12.60;99.90;;;;;;5134674;27;20039;-54
2022/10/21 06:02:24;;;;;;;82.30;33.60;;;12.90;99.90;;;;;;5134692;28;20039;-54
2022/10/21 06:04:50;;;;;;;79.80;35.88;;;12.80;99.90;;;;;;5134730;27;20110;-54
2022/10/21 06:07:16;;;;;;;81.13;33.75;;;13.00;99.90;;;;;;5134381;28;20042;-54
2022/10/21 06:09:41;;;;;;;79.03;33.28;;;12.90;99.90;;;;;;5115992;28;20058;-54
2022/10/21 06:12:07;;;;;;;67.78;31.73;;;12.70;99.90;;;;;;5134616;27;20168;-54
2022/10/21 06:14:36;;;;;;;99.82;35.78;;;12.80;99.90;;;;;;5134389;28;20035;-54
2022/10/21 06:17:03;;;;;;;83.43;35.33;;;12.60;99.90;;;;;;5134376;28;20135;-54
2022/10/21 06:19:29;;;;;;;74.55;32.63;;;12.60;99.90;;;;;;5134395;27;20134;-54
2022/10/21 06:21:56;;;;;;;71.18;33.55;;;12.60;99.90;;;;;;5134514;28;20062;-54
2022/10/21 06:24:23;;;;;;;68.55;31.45;;;12.70;99.90;;;;;;5134274;28;20122;-53
2022/10/21 06:26:49;;;;;;;79.85;34.58;;;12.70;99.90;;;;;;5134389;28;20114;-54
2022/10/21 06:29:16;;;;;;;61.75;32.30;;;12.70;99.90;;;;;;5134415;28;20088;-54
2022/10/21 06:31:42;;;;;;;70.97;34.72;;;13.00;99.90;;;;;;5134462;28;20062;-55
2022/10/21 06:34:07;;;;;;;81.38;34.97;;;12.80;99.90;;;;;;5135910;27;20472;-54
2022/10/21 06:36:33;;;;;;;75.75;33.60;;;12.90;99.90;;;;;;5138286;27;20042;-54
2022/10/21 06:38:59;;;;;;;62.30;30.98;;;12.70;99.90;;;;;;5138263;27;20035;-54
2022/10/21 06:41:24;;;;;;;61.20;29.88;;;12.80;99.90;;;;;;5137913;27;20051;-54
2022/10/21 06:43:50;;;;;;;72.43;32.03;;;12.70;99.90;;;;;;5138268;27;20054;-54
2022/10/21 06:46:16;;;;;;;59.53;31.00;;;12.90;99.90;;;;;;5137461;27;20038;-54
2022/10/21 06:48:42;;;;;;;66.35;32.28;;;12.80;99.90;;;;;;5136284;27;20039;-54
2022/10/21 06:51:17;;;;;;;62.60;30.98;;;12.90;99.90;;;;;;5136845;27;20484;-54
2022/10/21 06:53:43;;;;;;;63.00;30.30;;;13.00;99.90;;;;;;5137861;27;20042;-54
2022/10/21 06:56:11;;;;;;;65.10;30.80;;;13.00;99.90;;;;;;5137983;27;20039;-54
2022/10/21 06:58:41;;;;;;;59.20;31.13;;;12.70;99.90;;;;;;5119417;27;20465;-54
2022/10/21 07:01:12;;;;;;;59.25;31.42;;;13.00;99.90;;;;;;5119111;27;20608;-54
2022/10/21 07:03:38;;;;;;;51.08;29.00;;;12.70;99.90;;;;;;5137910;27;20114;-54
2022/10/21 07:06:04;;;;;;;49.00;27.85;;;12.70;99.90;;;;;;5137826;27;20062;-54
2022/10/21 07:08:30;;;;;;;46.80;27.27;;;12.70;99.90;;;;;;5137655;27;20397;-54
2022/10/21 07:10:56;;;;;;;50.88;27.95;;;12.70;99.90;;;;;;5137635;27;20122;-54
2022/10/21 07:13:22;;;;;;;44.40;26.60;;;13.00;99.90;;;;;;5137587;27;20069;-54
2022/10/21 07:16:01;;;;;;;48.95;27.98;;;12.90;99.90;;;;;;5136525;27;20035;-54
2022/10/21 07:18:26;;;;;;;55.15;27.70;;;12.80;99.90;;;;;;5135446;27;20032;-54
2022/10/21 07:20:52;;;;;;;44.58;26.10;;;12.90;99.90;;;;;;5118262;27;20028;-54
2022/10/21 07:23:18;;;;;;;49.95;27.33;;;13.20;99.90;;;;;;5115406;28;20060;-54
2022/10/21 07:25:43;;;;;;;49.15;26.50;;;13.20;99.90;;;;;;5115504;27;20038;-54
2022/10/21 07:28:09;;;;;;;36.42;24.73;;;12.90;99.90;;;;;;5135977;27;20457;-52
2022/10/21 07:30:42;;;;;;;33.97;23.65;;;13.00;99.90;;;;;;5117606;27;20082;-54
2022/10/21 07:33:08;;;;;;;37.17;23.50;;;13.30;99.90;;;;;;5137198;27;20039;-54
2022/10/21 07:35:34;;;;;;;37.35;23.90;;;13.30;99.90;;;;;;5137120;27;20117;-54
2022/10/21 07:38:00;;;;;;;40.10;24.27;;;13.00;99.90;;;;;;5137279;27;20058;-54
2022/10/21 07:40:27;;;;;;;34.15;22.83;;;13.40;99.90;;;;;;5136722;27;20379;-54
2022/10/21 07:42:53;;;;;;;45.53;24.27;;;13.40;99.90;;;;;;5136678;27;20043;-54
2022/10/21 07:45:19;;;;;;;43.03;22.80;;;13.30;99.90;;;;;;5136344;27;20043;-54
2022/10/21 07:47:45;;;;;;;31.85;21.60;;;13.10;99.90;;;;;;5126411;27;20041;-55
2022/10/21 07:50:11;;;;;;;32.45;22.30;;;13.20;99.90;;;;;;5114898;28;20130;-54
2022/10/21 07:52:44;;;;;;;29.52;21.17;;;13.30;99.90;;;;;;5116447;28;20385;-55
2022/10/21 07:55:11;;;;;;;37.92;22.45;;;13.20;99.90;;;;;;5116305;28;20054;-54
2022/10/21 07:57:36;;;;;;;34.03;22.60;;;13.00;99.90;;;;;;5115934;28;20455;-54
2022/10/21 08:00:04;;;;;;;36.78;23.42;;;13.20;99.90;;;;;;5116140;28;20032;-54
2022/10/21 08:02:30;;;;;;;38.10;22.70;;;13.10;99.90;;;;;;5116203;28;20123;-54
2022/10/21 08:04:56;;;;;;;38.05;21.27;;;13.10;99.90;;;;;;5116020;28;20122;-54
2022/10/21 08:07:21;;;;;;;37.78;22.85;;;13.40;99.90;;;;;;5116140;28;20031;-55
2022/10/21 08:09:47;;;;;;;35.70;23.13;;;13.20;99.90;;;;;;5115988;28;20098;-54
2022/10/21 08:12:12;;;;;;;30.00;20.58;;;13.20;99.90;;;;;;5098161;28;20039;-54
2022/10/21 08:14:38;;;;;;;32.58;20.90;;;13.50;99.90;;;;;;5115984;28;20084;-55
2022/10/21 08:17:04;;;;;;;34.92;21.35;;;13.60;99.90;;;;;;5114393;28;20035;-53
2022/10/21 08:19:30;;;;;;;33.25;22.05;;;13.40;99.90;;;;;;5131231;27;20425;-54
2022/10/21 08:21:57;;;;;;;34.65;21.75;;;13.80;99.90;;;;;;5134291;27;20027;-53
2022/10/21 08:24:22;;;;;;;37.58;22.08;;;13.60;99.90;;;;;;5134524;27;20151;-54
2022/10/21 08:26:49;;;;;;;37.35;22.45;;;13.50;99.90;;;;;;5134660;27;20067;-54
2022/10/21 08:29:14;;;;;;;29.85;20.95;;;13.50;99.90;;;;;;5134441;27;20054;-54
2022/10/21 08:31:40;;;;;;;33.72;21.45;;;13.80;99.90;;;;;;5134703;27;20481;-54
2022/10/21 08:34:06;;;;;;;28.10;20.05;;;13.80;99.90;;;;;;5135940;27;20497;-54
2022/10/21 08:36:31;;;;;;;34.42;22.02;;;13.70;99.90;;;;;;5136063;27;20047;-54
2022/10/21 08:38:57;;;;;;;32.58;20.58;;;13.80;99.90;;;;;;5135958;27;20102;-54
2022/10/21 08:41:29;;;;;;;27.63;19.60;;;13.90;99.90;;;;;;5135483;27;20043;-55
2022/10/21 08:44:00;;;;;;;35.88;21.30;;;14.00;99.90;;;;;;5135965;27;20118;-54
2022/10/21 08:46:31;;;;;;;26.60;19.80;;;14.10;99.90;;;;;;5135441;27;20377;-54
2022/10/21 08:49:10;;;;;;;32.58;22.00;;;14.10;99.90;;;;;;5134549;27;20039;-54
2022/10/21 08:51:56;;;;;;;29.67;19.80;;;13.90;99.90;;;;;;5134680;27;20493;-54
2022/10/21 08:54:38;;;;;;;28.70;19.20;;;14.00;99.90;;;;;;5134652;27;20099;-54
2022/10/21 08:57:07;;;;;;;29.42;20.00;;;14.00;99.90;;;;;;5133621;27;20052;-54
2022/10/21 08:59:33;;;;;;;32.03;19.02;;;14.00;99.90;;;;;;5134250;27;20043;-54
2022/10/21 09:02:25;;;;;;;32.28;19.50;;;14.40;99.90;;;;;;5130147;27;20554;-54
2022/10/21 09:05:00;;;;;;;30.05;20.35;;;14.50;99.90;;;;;;5114279;28;20035;-54
2022/10/21 09:07:44;;;;;;;30.80;19.95;;;14.20;99.90;;;;;;5114940;28;20035;-54
2022/10/21 09:10:33;;;;;;;27.23;18.90;;;14.60;99.90;;;;;;5114882;28;20392;-55
2022/10/21 09:13:11;;;;;;;29.63;19.35;;;14.50;99.90;;;;;;5114729;28;20043;-54
2022/10/21 09:15:53;;;;;;;28.52;19.60;;;14.40;99.90;;;;;;5101071;27;20043;-54
2022/10/21 09:18:25;;;;;;;27.98;18.65;;;14.40;99.90;;;;;;5115187;27;20096;-54
2022/10/21 09:21:04;;;;;;;31.40;18.33;;;14.50;99.90;;;;;;5133454;27;20043;-55
2022/10/21 09:24:00;;;;;;;27.08;17.70;;;14.50;99.90;;;;;;5135144;27;20038;-54
2022/10/21 09:26:50;;;;;;;31.38;18.30;;;14.60;99.90;;;;;;5116501;27;20059;-54
2022/10/21 09:29:28;;;;;;;21.75;16.98;;;15.00;99.90;;;;;;5135099;27;20054;-54
2022/10/21 09:32:16;;;;;;;27.17;17.70;;;15.10;99.90;;;;;;5134975;27;20046;-54
2022/10/21 09:34:44;;;;;;;22.77;16.23;;;14.90;99.90;;;;;;5135066;27;20042;-54
2022/10/21 09:37:24;;;;;;;23.88;16.67;;;14.90;99.90;;;;;;5134879;27;20035;-54
2022/10/21 09:40:14;;;;;;;26.67;16.55;;;15.30;99.90;;;;;;5134724;27;20039;-54
2022/10/21 09:42:40;;;;;;;25.10;16.65;;;15.30;99.90;;;;;;5135094;27;20076;-54
2022/10/21 09:45:43;;;;;;;23.67;14.73;;;15.10;99.90;;;;;;5134952;27;20035;-54
2022/10/21 09:48:09;;;;;;;19.38;13.77;;;15.20;99.90;;;;;;5028962;28;20041;-54
2022/10/21 09:50:36;;;;;;;19.52;14.52;;;15.50;99.90;;;;;;5030032;28;20060;-54
2022/10/21 09:53:06;;;;;;;24.20;14.57;;;15.50;99.90;;;;;;5030582;28;20054;-54
2022/10/21 09:55:32;;;;;;;17.65;13.30;;;15.70;99.90;;;;;;5031604;28;20057;-54
2022/10/21 09:58:00;;;;;;;21.60;13.85;;;15.90;99.90;;;;;;5031670;28;20415;-54
2022/10/21 10:00:45;;;;;;;23.77;13.63;;;15.80;99.90;;;;;;5031279;28;20037;-54
2022/10/21 10:03:11;;;;;;;17.60;12.02;;;15.80;99.90;;;;;;5031527;28;20045;-55
2022/10/21 10:05:42;;;;;;;16.33;11.18;;;16.10;99.90;;;;;;5031840;28;20145;-55
2022/10/21 10:08:30;;;;;;;15.88;11.55;;;16.20;99.90;;;;;;5032924;28;20037;-55
2022/10/21 10:11:09;;;;;;;19.27;12.18;;;16.00;99.90;;;;;;5035380;28;20052;-55
2022/10/21 10:13:36;;;;;;;25.52;11.77;;;16.40;99.90;;;;;;5035511;28;20125;-55
2022/10/21 10:16:30;;;;;;;15.25;12.02;;;16.30;99.90;;;;;;5035075;28;20183;-54
2022/10/21 10:19:18;;;;;;;21.33;12.63;;;16.30;99.90;;;;;;5035082;28;20046;-54
2022/10/21 10:21:47;;;;;;;14.73;10.85;;;16.30;99.90;;;;;;5035288;28;20042;-55
2022/10/21 10:24:18;;;;;;;16.08;11.18;;;16.20;99.90;;;;;;5072947;27;20039;-54
2022/10/21 10:26:44;;;;;;;16.30;11.30;;;16.50;99.90;;;;;;5138563;27;20545;-54
2022/10/21 10:29:30;;;;;;;19.50;11.75;;;16.40;99.90;;;;;;5138454;27;20067;-55
2022/10/21 10:31:59;;;;;;;17.83;11.32;;;16.50;99.90;;;;;;5137780;27;20103;-54
2022/10/21 10:34:41;;;;;;;51.88;14.07;;;16.60;99.90;;;;;;5120510;27;20549;-54
2022/10/21 10:37:17;;;;;;;21.23;12.00;;;16.40;99.90;;;;;;5117850;28;20047;-54
2022/10/21 10:39:47;;;;;;;14.07;10.50;;;16.50;99.90;;;;;;5116338;27;20071;-55
2022/10/21 10:42:27;;;;;;;13.80;10.57;;;16.50;99.90;;;;;;5117742;28;20047;-55
2022/10/21 10:44:59;;;;;;;18.50;11.23;;;16.70;99.90;;;;;;5117663;28;20031;-55
2022/10/21 10:47:29;;;;;;;17.98;11.50;;;16.50;99.90;;;;;;5115338;27;21356;-55
2022/10/21 10:49:55;;;;;;;15.30;11.02;;;16.60;99.90;;;;;;5115322;27;20433;-55
2022/10/21 10:52:23;;;;;;;17.27;11.25;;;16.60;99.90;;;;;;5116674;28;20083;-55
2022/10/21 10:55:10;;;;;;;18.20;10.75;;;16.50;99.90;;;;;;5117579;28;20494;-55
2022/10/21 10:57:36;;;;;;;12.52;10.05;;;16.50;99.90;;;;;;5117364;28;20070;-55
2022/10/21 11:00:04;;;;;;;18.70;10.13;;;16.50;99.90;;;;;;5117280;28;20043;-55
2022/10/21 11:02:45;;;;;;;12.65;9.25;;;16.70;99.90;;;;;;5117406;28;20059;-55
2022/10/21 11:05:32;;;;;;;15.30;9.13;;;16.60;99.90;;;;;;5116428;28;20036;-55
2022/10/21 11:08:23;;;;;;;16.20;8.98;;;16.60;99.90;;;;;;5117276;28;20119;-55
2022/10/21 11:10:55;;;;;;;13.23;9.00;;;16.80;99.90;;;;;;5116890;28;20050;-54
2022/10/21 11:13:22;;;;;;;12.32;9.15;;;16.90;99.90;;;;;;5116881;28;20035;-55
2022/10/21 11:16:17;;;;;;;19.27;9.13;;;16.90;99.90;;;;;;5116495;28;20039;-55
2022/10/21 11:19:04;;;;;;;18.60;8.50;;;16.80;99.90;;;;;;5012061;28;20129;-55
2022/10/21 11:21:53;;;;;;;15.00;8.20;;;16.90;99.90;;;;;;5012693;28;20535;-55
2022/10/21 11:24:50;;;;;;;10.63;7.57;;;17.10;99.90;;;;;;5014310;28;20421;-55
2022/10/21 11:27:21;;;;;;;13.07;7.95;;;17.10;99.90;;;;;;5014232;28;20038;-55
2022/10/21 11:30:01;;;;;;;15.45;7.60;;;17.00;99.90;;;;;;5014322;28;20057;-54
2022/10/21 11:32:52;;;;;;;13.02;7.53;;;17.10;99.90;;;;;;5014182;28;20045;-55
2022/10/21 11:35:45;;;;;;;13.13;7.07;;;17.00;99.90;;;;;;5014224;28;20081;-55
2022/10/21 11:38:28;;;;;;;14.27;7.63;;;17.00;99.90;;;;;;5013939;28;20158;-55
2022/10/21 11:41:23;;;;;;;11.70;6.70;;;17.10;99.90;;;;;;5013731;28;20049;-55
2022/10/21 11:44:12;;;;;;;12.27;7.43;;;17.20;99.90;;;;;;5014066;28;20133;-55
2022/10/21 11:46:49;;;;;;;11.63;6.90;;;17.20;99.90;;;;;;5012813;28;20127;-55
2022/10/21 11:49:22;;;;;;;10.45;6.43;;;17.30;99.90;;;;;;5015891;28;20049;-55
2022/10/21 11:52:15;;;;;;;15.48;7.57;;;17.20;99.90;;;;;;5031916;28;20042;-55
2022/10/21 11:55:09;;;;;;;14.35;8.32;;;17.10;99.90;;;;;;5067140;27;20625;-55
2022/10/21 11:57:43;;;;;;;10.07;7.25;;;17.10;99.90;;;;;;5136600;27;20489;-55
2022/10/21 12:00:17;;;;;;;9.68;7.57;;;17.20;99.90;;;;;;5136236;27;20035;-55
2022/10/21 12:02:44;;;;;;;9.75;6.75;;;17.00;99.90;;;;;;5134385;27;20035;-54
2022/10/21 12:05:26;;;;;;;14.30;7.13;;;17.00;99.90;;;;;;5134612;27;20123;-55
2022/10/21 12:08:16;;;;;;;16.67;8.70;;;17.10;99.90;;;;;;5136130;27;20027;-55
2022/10/21 12:11:00;;;;;;;9.32;6.15;;;17.00;99.90;;;;;;5136579;27;20039;-55
2022/10/21 12:13:47;;;;;;;10.95;7.03;;;17.10;99.90;;;;;;5136635;27;20096;-55
2022/10/21 12:16:21;;;;;;;13.75;7.63;;;17.00;99.90;;;;;;5135814;27;20117;-55
2022/10/21 12:18:54;;;;;;;11.38;6.90;;;17.00;99.90;;;;;;5134318;27;20035;-55
2022/10/21 12:21:24;;;;;;;13.27;6.90;;;16.90;99.90;;;;;;5107089;28;20496;-55
2022/10/21 12:24:13;;;;;;;17.90;7.35;;;17.10;99.90;;;;;;5115301;28;20492;-55
2022/10/21 12:27:16;;;;;;;11.40;6.22;;;17.10;99.90;;;;;;5115761;28;20071;-54
2022/10/21 12:30:00;;;;;;;10.55;7.00;;;17.20;99.90;;;;;;5110555;28;20048;-54
2022/10/21 12:32:40;;;;;;;11.50;6.97;;;17.00;99.90;;;;;;5114464;28;20035;-55
2022/10/21 12:35:12;;;;;;;15.20;6.47;;;17.10;99.90;;;;;;5115608;28;20390;-55
2022/10/21 12:38:04;;;;;;;15.98;7.18;;;17.00;99.90;;;;;;5115591;28;20043;-55
2022/10/21 12:40:31;;;;;;;13.13;6.60;;;17.10;99.90;;;;;;5115203;28;20047;-55
2022/10/21 12:43:00;;;;;;;15.23;7.82;;;17.20;99.90;;;;;;5115405;28;20051;-55
2022/10/21 12:45:32;;;;;;;10.95;6.53;;;17.20;99.90;;;;;;5115740;28;20032;-54
2022/10/21 12:47:59;;;;;;;10.20;7.10;;;17.10;99.90;;;;;;5127686;27;20035;-55